Manama, Bahrain

2:54 PM AST on May 23, 2015 (GMT +0300)
Bahrain International | | Change Station
CLOSE
Current Station
Airport
Location: Manama,
Elevation: 7 ft
Nearby Weather Stations

Elev 7 ft 26.27 °N, 50.63 °E | Updated 54 minutes ago

Clear
Clear
100 °F
Feels Like 106 °F
N
12
Wind Variable Wind from ESE

Today
High -- | Low -- °F
--% Chance of Precip.
Yesterday
High -- | Low -- °F
Precip. -- in
4:47 AM 6:20 PM
Waxing Crescent, 29% visible
Pressure 29.62 in
Visibility -9999.0 miles
Clouds
Heat Index 106 °F
Dew Point 68 °F
Humidity 35%
Rainfall 0.00 in
Snow Depth Not available.
UV Not available.
Pollen Not available.
Air Quality Not available.
Flu Activity Not available.
METAR OBBI 231100Z 12010KT CAVOK 38/20 Q1003 NOSIG

More Conditions Fewer Conditions

Pressure 29.62 in
Visibility -9999.0 miles
Clouds
Heat Index 106 °F
Dew Point 68 °F
Humidity 35%
Rainfall 0.00 in
Snow Depth Not available.
UV Not available.
Pollen Not available.
Air Quality Not available.
Flu Activity Not available.
METAR OBBI 231100Z 12010KT CAVOK 38/20 Q1003 NOSIG

More Conditions Fewer Conditions

10-Day Weather Forecast

Almanac

Astronomy

May. 23, 2015 Rise Set
Actual Time
Civil Twilight
Nautical Twilight
Astronomical Twilight
Moon
Length of Visible Light
Length of Day
Tomorrow will be .
, % of the Moon is Illuminated

Today's Extremes

Country Highs Country Lows

Community

WunderPhotos

Upload Photos

1,823,435 photos uploaded!

WunderBlogs® & News

Nearby

Air Quality

  Air Quality AQ Index Pollutant
Not available.

Snow Depth

Station Depth Elevation

Earthquake Activity

City Distance Mag. Time & Date
Minimum magnitude displayed is 2.5.

Coastal Water Temperatures

Place Temperature

Stations

Nearby Weather Stations

Station Location Temp. Windchill Dew Point Humidity Wind Precip. Elev Updated Type